sensor_id;sensor_type;location;lat;lon;timestamp;pressure;altitude;pressure_sealevel;temperature;humidity
48035;BME280;33812;46.480;6.834;2023-05-14T00:00:18;93528.81;;;20.47;45.81
48035;BME280;33812;46.480;6.834;2023-05-14T00:04:21;93527.59;;;20.48;45.59
48035;BME280;33812;46.480;6.834;2023-05-14T00:08:24;93525.38;;;20.29;46.00
48035;BME280;33812;46.480;6.834;2023-05-14T00:12:26;93522.47;;;20.20;46.24
48035;BME280;33812;46.480;6.834;2023-05-14T00:16:29;93522.28;;;19.98;46.42
48035;BME280;33812;46.480;6.834;2023-05-14T00:20:31;93520.41;;;20.24;46.46
48035;BME280;33812;46.480;6.834;2023-05-14T00:24:34;93522.88;;;20.48;45.77
48035;BME280;33812;46.480;6.834;2023-05-14T00:28:36;93505.44;;;20.64;45.38
48035;BME280;33812;46.480;6.834;2023-05-14T00:32:37;93505.53;;;20.61;45.46
48035;BME280;33812;46.480;6.834;2023-05-14T00:36:39;93508.94;;;20.65;44.85
48035;BME280;33812;46.480;6.834;2023-05-14T00:40:42;93510.06;;;20.54;45.12
48035;BME280;33812;46.480;6.834;2023-05-14T00:44:50;93503.97;;;20.47;45.32
48035;BME280;33812;46.480;6.834;2023-05-14T00:48:52;93491.84;;;20.01;45.84
48035;BME280;33812;46.480;6.834;2023-05-14T00:52:54;93493.22;;;20.10;46.05
48035;BME280;33812;46.480;6.834;2023-05-14T00:56:58;93487.75;;;20.36;45.72
48035;BME280;33812;46.480;6.834;2023-05-14T01:01:00;93477.66;;;20.16;46.32
48035;BME280;33812;46.480;6.834;2023-05-14T01:05:02;93475.00;;;20.12;46.06
48035;BME280;33812;46.480;6.834;2023-05-14T01:09:11;93470.94;;;20.17;46.06
48035;BME280;33812;46.480;6.834;2023-05-14T01:13:19;93470.06;;;20.33;45.48
48035;BME280;33812;46.480;6.834;2023-05-14T01:17:26;93465.66;;;20.36;45.74
48035;BME280;33812;46.480;6.834;2023-05-14T01:21:36;93464.66;;;20.29;45.81
48035;BME280;33812;46.480;6.834;2023-05-14T01:25:39;93456.16;;;20.50;45.50
48035;BME280;33812;46.480;6.834;2023-05-14T01:29:44;93459.91;;;20.56;45.20
48035;BME280;33812;46.480;6.834;2023-05-14T01:33:47;93470.28;;;20.39;45.19
48035;BME280;33812;46.480;6.834;2023-05-14T01:37:52;93470.19;;;20.29;45.88
48035;BME280;33812;46.480;6.834;2023-05-14T01:41:56;93469.50;;;20.25;45.64
48035;BME280;33812;46.480;6.834;2023-05-14T01:45:58;93470.94;;;20.17;46.02
48035;BME280;33812;46.480;6.834;2023-05-14T01:50:00;93468.84;;;20.47;45.51
48035;BME280;33812;46.480;6.834;2023-05-14T01:54:03;93466.66;;;20.55;45.07
48035;BME280;33812;46.480;6.834;2023-05-14T01:58:07;93468.53;;;20.58;44.89
48035;BME280;33812;46.480;6.834;2023-05-14T02:02:08;93460.81;;;20.53;44.86
48035;BME280;33812;46.480;6.834;2023-05-14T02:06:10;93460.91;;;20.23;45.37
48035;BME280;33812;46.480;6.834;2023-05-14T02:10:14;93460.34;;;20.15;45.59
48035;BME280;33812;46.480;6.834;2023-05-14T02:14:16;93451.28;;;20.28;45.53
48035;BME280;33812;46.480;6.834;2023-05-14T02:18:17;93450.19;;;20.38;44.96
48035;BME280;33812;46.480;6.834;2023-05-14T02:22:19;93448.41;;;20.58;44.70
48035;BME280;33812;46.480;6.834;2023-05-14T02:26:26;93449.44;;;20.64;44.89
48035;BME280;33812;46.480;6.834;2023-05-14T02:30:28;93444.56;;;20.42;44.70
48035;BME280;33812;46.480;6.834;2023-05-14T02:34:30;93449.66;;;20.31;45.09
48035;BME280;33812;46.480;6.834;2023-05-14T02:38:33;93450.88;;;20.56;44.57
48035;BME280;33812;46.480;6.834;2023-05-14T02:42:36;93455.72;;;20.51;44.53
48035;BME280;33812;46.480;6.834;2023-05-14T02:46:38;93453.19;;;20.44;44.63
48035;BME280;33812;46.480;6.834;2023-05-14T02:50:40;93445.56;;;20.22;44.62
48035;BME280;33812;46.480;6.834;2023-05-14T02:54:43;93450.72;;;20.07;45.11
48035;BME280;33812;46.480;6.834;2023-05-14T02:58:46;93455.28;;;20.40;44.77
48035;BME280;33812;46.480;6.834;2023-05-14T03:02:48;93441.44;;;20.14;45.12
48035;BME280;33812;46.480;6.834;2023-05-14T03:06:49;93436.72;;;20.27;44.72
48035;BME280;33812;46.480;6.834;2023-05-14T03:10:51;93432.31;;;20.56;44.65
48035;BME280;33812;46.480;6.834;2023-05-14T03:14:54;93434.06;;;20.76;44.31
48035;BME280;33812;46.480;6.834;2023-05-14T03:18:56;93425.78;;;20.37;44.09
48035;BME280;33812;46.480;6.834;2023-05-14T03:22:58;93424.47;;;20.54;43.97
48035;BME280;33812;46.480;6.834;2023-05-14T03:27:00;93434.41;;;20.39;43.94
48035;BME280;33812;46.480;6.834;2023-05-14T03:31:03;93433.13;;;20.01;44.65
48035;BME280;33812;46.480;6.834;2023-05-14T03:35:05;93427.13;;;20.19;44.68
48035;BME280;33812;46.480;6.834;2023-05-14T03:39:07;93427.69;;;20.40;44.11
48035;BME280;33812;46.480;6.834;2023-05-14T03:43:09;93431.09;;;20.44;44.48
48035;BME280;33812;46.480;6.834;2023-05-14T03:47:13;93432.41;;;20.52;44.18
48035;BME280;33812;46.480;6.834;2023-05-14T03:51:14;93437.94;;;20.52;44.33
48035;BME280;33812;46.480;6.834;2023-05-14T03:55:17;93430.88;;;20.51;44.31
48035;BME280;33812;46.480;6.834;2023-05-14T03:59:18;93428.13;;;20.51;44.16
48035;BME280;33812;46.480;6.834;2023-05-14T04:03:21;93425.47;;;20.48;44.08
48035;BME280;33812;46.480;6.834;2023-05-14T04:07:23;93422.03;;;20.31;44.24
48035;BME280;33812;46.480;6.834;2023-05-14T04:11:25;93420.06;;;20.31;44.35
48035;BME280;33812;46.480;6.834;2023-05-14T04:15:27;93417.41;;;20.53;44.25
48035;BME280;33812;46.480;6.834;2023-05-14T04:19:30;93426.47;;;20.54;43.95
48035;BME280;33812;46.480;6.834;2023-05-14T04:23:32;93423.94;;;20.47;44.27
48035;BME280;33812;46.480;6.834;2023-05-14T04:27:34;93425.34;;;20.51;44.14
48035;BME280;33812;46.480;6.834;2023-05-14T04:31:36;93426.25;;;20.48;44.01
48035;BME280;33812;46.480;6.834;2023-05-14T04:35:40;93431.53;;;20.42;43.97
48035;BME280;33812;46.480;6.834;2023-05-14T04:39:42;93431.31;;;20.37;43.85
48035;BME280;33812;46.480;6.834;2023-05-14T04:43:43;93443.78;;;20.28;44.04
48035;BME280;33812;46.480;6.834;2023-05-14T04:47:45;93437.69;;;20.08;44.21
48035;BME280;33812;46.480;6.834;2023-05-14T04:51:48;93442.41;;;19.94;44.82
48035;BME280;33812;46.480;6.834;2023-05-14T04:55:50;93446.16;;;20.00;45.00
48035;BME280;33812;46.480;6.834;2023-05-14T04:59:57;93441.03;;;20.28;44.43
48035;BME280;33812;46.480;6.834;2023-05-14T05:03:58;93444.78;;;20.74;44.55
48035;BME280;33812;46.480;6.834;2023-05-14T05:08:02;93447.31;;;20.81;43.57
48035;BME280;33812;46.480;6.834;2023-05-14T05:12:06;93442.34;;;20.89;43.81
48035;BME280;33812;46.480;6.834;2023-05-14T05:16:10;93452.63;;;20.88;43.23
48035;BME280;33812;46.480;6.834;2023-05-14T05:20:13;93448.53;;;20.67;43.37
48035;BME280;33812;46.480;6.834;2023-05-14T05:24:16;93442.69;;;20.52;44.06
48035;BME280;33812;46.480;6.834;2023-05-14T05:28:18;93439.84;;;20.56;43.74
48035;BME280;33812;46.480;6.834;2023-05-14T05:32:20;93441.38;;;20.70;44.07
48035;BME280;33812;46.480;6.834;2023-05-14T05:36:22;93442.34;;;20.76;43.65
48035;BME280;33812;46.480;6.834;2023-05-14T05:40:25;93441.81;;;20.55;43.68
48035;BME280;33812;46.480;6.834;2023-05-14T05:44:40;93431.31;;;20.63;44.03
48035;BME280;33812;46.480;6.834;2023-05-14T05:48:49;93436.81;;;20.76;43.69
48035;BME280;33812;46.480;6.834;2023-05-14T05:52:53;93432.41;;;20.78;43.41
48035;BME280;33812;46.480;6.834;2023-05-14T05:57:02;93429.13;;;20.45;43.16
48035;BME280;33812;46.480;6.834;2023-05-14T06:01:12;93428.88;;;20.65;43.88
48035;BME280;33812;46.480;6.834;2023-05-14T06:05:14;93426.66;;;20.60;43.24
48035;BME280;33812;46.480;6.834;2023-05-14T06:09:23;93432.53;;;20.62;43.55
48035;BME280;33812;46.480;6.834;2023-05-14T06:13:26;93425.78;;;20.37;43.16
48035;BME280;33812;46.480;6.834;2023-05-14T06:17:29;93436.63;;;20.57;43.62
48035;BME280;33812;46.480;6.834;2023-05-14T06:21:31;93440.38;;;20.63;43.44
48035;BME280;33812;46.480;6.834;2023-05-14T06:25:32;93439.16;;;20.51;43.71
48035;BME280;33812;46.480;6.834;2023-05-14T06:29:36;93434.50;;;20.61;43.31
48035;BME280;33812;46.480;6.834;2023-05-14T06:33:37;93441.34;;;20.83;43.49
48035;BME280;33812;46.480;6.834;2023-05-14T06:37:39;93436.16;;;20.85;43.29
48035;BME280;33812;46.480;6.834;2023-05-14T06:41:41;93445.53;;;20.87;43.03
48035;BME280;33812;46.480;6.834;2023-05-14T06:45:47;93435.47;;;20.81;43.37
48035;BME280;33812;46.480;6.834;2023-05-14T06:49:49;93442.13;;;20.96;43.54
48035;BME280;33812;46.480;6.834;2023-05-14T06:53:50;93448.06;;;21.08;43.07
48035;BME280;33812;46.480;6.834;2023-05-14T06:57:53;93443.97;;;21.12;43.40
48035;BME280;33812;46.480;6.834;2023-05-14T07:02:07;93452.59;;;21.14;43.01
48035;BME280;33812;46.480;6.834;2023-05-14T07:06:10;93449.09;;;21.01;42.61
48035;BME280;33812;46.480;6.834;2023-05-14T07:10:13;93448.41;;;21.10;42.50
48035;BME280;33812;46.480;6.834;2023-05-14T07:14:14;93445.53;;;21.13;42.02
48035;BME280;33812;46.480;6.834;2023-05-14T07:18:18;93443.41;;;21.18;42.87
48035;BME280;33812;46.480;6.834;2023-05-14T07:22:20;93446.78;;;20.99;42.85
48035;BME280;33812;46.480;6.834;2023-05-14T07:26:22;93442.31;;;21.15;42.84
48035;BME280;33812;46.480;6.834;2023-05-14T07:30:24;93446.63;;;21.16;43.33
48035;BME280;33812;46.480;6.834;2023-05-14T07:34:34;93440.88;;;21.10;42.63
48035;BME280;33812;46.480;6.834;2023-05-14T07:38:37;93432.22;;;21.21;43.22
48035;BME280;33812;46.480;6.834;2023-05-14T07:42:40;93425.31;;;21.04;43.23
48035;BME280;33812;46.480;6.834;2023-05-14T07:46:42;93425.31;;;21.04;42.89
48035;BME280;33812;46.480;6.834;2023-05-14T07:50:47;93425.78;;;20.89;42.91
48035;BME280;33812;46.480;6.834;2023-05-14T07:54:49;93430.38;;;21.05;43.22
48035;BME280;33812;46.480;6.834;2023-05-14T07:58:53;93430.38;;;21.05;43.25
48035;BME280;33812;46.480;6.834;2023-05-14T08:02:57;93439.88;;;21.17;43.07
48035;BME280;33812;46.480;6.834;2023-05-14T08:07:01;93429.34;;;21.25;43.30
48035;BME280;33812;46.480;6.834;2023-05-14T08:11:03;93436.56;;;21.22;42.57
48035;BME280;33812;46.480;6.834;2023-05-14T08:15:05;93419.81;;;21.26;42.63
48035;BME280;33812;46.480;6.834;2023-05-14T08:19:08;93417.22;;;21.22;42.42
48035;BME280;33812;46.480;6.834;2023-05-14T08:23:14;93419.75;;;21.17;42.75
48035;BME280;33812;46.480;6.834;2023-05-14T08:27:16;93426.00;;;21.30;43.19
48035;BME280;33812;46.480;6.834;2023-05-14T08:31:18;93416.56;;;21.18;42.73
48035;BME280;33812;46.480;6.834;2023-05-14T08:35:19;93432.38;;;21.40;42.61
48035;BME280;33812;46.480;6.834;2023-05-14T08:39:23;93430.66;;;21.33;42.96
48035;BME280;33812;46.480;6.834;2023-05-14T08:43:26;93427.50;;;21.44;42.64
48035;BME280;33812;46.480;6.834;2023-05-14T08:47:31;93411.84;;;21.41;42.08
48035;BME280;33812;46.480;6.834;2023-05-14T08:51:34;93417.75;;;21.53;42.45
48035;BME280;33812;46.480;6.834;2023-05-14T08:55:37;93427.16;;;21.55;42.63
48035;BME280;33812;46.480;6.834;2023-05-14T08:59:39;93409.91;;;21.51;42.31
48035;BME280;33812;46.480;6.834;2023-05-14T09:03:41;93404.91;;;21.59;42.46
48035;BME280;33812;46.480;6.834;2023-05-14T09:07:44;93415.31;;;21.55;42.37
48035;BME280;33812;46.480;6.834;2023-05-14T09:11:48;93412.78;;;21.47;42.35
48035;BME280;33812;46.480;6.834;2023-05-14T09:15:50;93406.94;;;21.45;42.31
48035;BME280;33812;46.480;6.834;2023-05-14T09:19:52;93410.22;;;21.31;42.12
48035;BME280;33812;46.480;6.834;2023-05-14T09:23:56;93410.44;;;21.23;42.47
48035;BME280;33812;46.480;6.834;2023-05-14T09:28:04;93414.72;;;21.37;42.58
48035;BME280;33812;46.480;6.834;2023-05-14T09:32:07;93421.53;;;21.46;42.79
48035;BME280;33812;46.480;6.834;2023-05-14T09:36:10;93416.91;;;21.43;42.00
48035;BME280;33812;46.480;6.834;2023-05-14T09:40:12;93412.59;;;21.42;42.15
48035;BME280;33812;46.480;6.834;2023-05-14T09:44:15;93405.53;;;21.41;42.32
48035;BME280;33812;46.480;6.834;2023-05-14T09:48:17;93409.06;;;21.41;42.34
48035;BME280;33812;46.480;6.834;2023-05-14T09:52:19;93409.06;;;21.41;42.28
48035;BME280;33812;46.480;6.834;2023-05-14T09:56:21;93410.03;;;21.47;42.43
48035;BME280;33812;46.480;6.834;2023-05-14T10:00:24;93409.91;;;21.51;42.45
48035;BME280;33812;46.480;6.834;2023-05-14T10:04:26;93396.44;;;21.40;42.50
48035;BME280;33812;46.480;6.834;2023-05-14T10:08:32;93404.25;;;21.55;42.35
48035;BME280;33812;46.480;6.834;2023-05-14T10:12:37;93403.66;;;21.60;42.08
48035;BME280;33812;46.480;6.834;2023-05-14T10:16:42;93410.09;;;21.57;42.25
48035;BME280;33812;46.480;6.834;2023-05-14T10:20:47;93412.94;;;21.66;41.94
48035;BME280;33812;46.480;6.834;2023-05-14T10:24:54;93401.03;;;21.56;41.31
48035;BME280;33812;46.480;6.834;2023-05-14T10:34:48;93391.88;;;21.82;41.74
48035;BME280;33812;46.480;6.834;2023-05-14T10:38:54;93399.25;;;21.85;41.81
48035;BME280;33812;46.480;6.834;2023-05-14T10:42:58;93388.50;;;21.87;40.88
48035;BME280;33812;46.480;6.834;2023-05-14T10:47:00;93398.34;;;21.88;41.36
48035;BME280;33812;46.480;6.834;2023-05-14T10:51:06;93387.59;;;21.90;40.99
48035;BME280;33812;46.480;6.834;2023-05-14T10:55:11;93389.13;;;21.91;40.71
48035;BME280;33812;46.480;6.834;2023-05-14T10:59:15;93385.16;;;21.92;41.54
48035;BME280;33812;46.480;6.834;2023-05-14T11:03:17;93374.84;;;21.93;41.27
48035;BME280;33812;46.480;6.834;2023-05-14T11:07:23;93375.16;;;21.95;42.00
48035;BME280;33812;46.480;6.834;2023-05-14T11:11:25;93381.94;;;21.94;41.93
48035;BME280;33812;46.480;6.834;2023-05-14T11:15:27;93373.63;;;21.94;42.16
48035;BME280;33812;46.480;6.834;2023-05-14T11:19:28;93374.38;;;21.94;41.62
48035;BME280;33812;46.480;6.834;2023-05-14T11:23:31;93373.63;;;21.94;41.96
48035;BME280;33812;46.480;6.834;2023-05-14T11:27:35;93376.28;;;21.97;41.39
48035;BME280;33812;46.480;6.834;2023-05-14T11:31:37;93353.94;;;21.92;40.71
48035;BME280;33812;46.480;6.834;2023-05-14T11:35:39;93359.81;;;21.94;40.54
48035;BME280;33812;46.480;6.834;2023-05-14T11:39:47;93355.34;;;21.96;39.96
48035;BME280;33812;46.480;6.834;2023-05-14T11:43:50;93356.59;;;21.95;39.85
48035;BME280;33812;46.480;6.834;2023-05-14T11:47:52;93356.91;;;21.97;40.53
48035;BME280;33812;46.480;6.834;2023-05-14T11:51:57;93358.44;;;21.98;40.20
48035;BME280;33812;46.480;6.834;2023-05-14T11:56:00;93354.88;;;21.98;40.57
48035;BME280;33812;46.480;6.834;2023-05-14T12:00:03;93350.47;;;22.01;39.95
48035;BME280;33812;46.480;6.834;2023-05-14T12:04:08;93359.97;;;22.00;40.86
48035;BME280;33812;46.480;6.834;2023-05-14T12:08:19;93358.91;;;21.97;40.42
48035;BME280;33812;46.480;6.834;2023-05-14T12:12:23;93355.66;;;21.98;39.85
48035;BME280;33812;46.480;6.834;2023-05-14T12:16:29;93351.66;;;22.00;39.90
48035;BME280;33812;46.480;6.834;2023-05-14T12:20:31;93356.13;;;21.97;39.85
48035;BME280;33812;46.480;6.834;2023-05-14T12:24:33;93348.91;;;22.00;39.39
48035;BME280;33812;46.480;6.834;2023-05-14T12:28:37;93351.66;;;22.00;38.71
48035;BME280;33812;46.480;6.834;2023-05-14T12:32:42;93348.91;;;22.00;38.96
48035;BME280;33812;46.480;6.834;2023-05-14T12:36:44;93351.25;;;22.01;39.23
48035;BME280;33812;46.480;6.834;2023-05-14T12:40:45;93353.22;;;22.01;39.82
48035;BME280;33812;46.480;6.834;2023-05-14T12:44:48;93356.91;;;21.97;39.43
48035;BME280;33812;46.480;6.834;2023-05-14T12:48:50;93350.41;;;21.91;40.27
48035;BME280;33812;46.480;6.834;2023-05-14T12:52:52;93347.97;;;21.93;39.86
48035;BME280;33812;46.480;6.834;2023-05-14T12:56:53;93349.81;;;21.96;40.44
48035;BME280;33812;46.480;6.834;2023-05-14T13:00:56;93347.97;;;21.93;40.04
48035;BME280;33812;46.480;6.834;2023-05-14T13:04:58;93343.97;;;21.94;40.24
48035;BME280;33812;46.480;6.834;2023-05-14T13:09:02;93345.19;;;21.93;40.15
48035;BME280;33812;46.480;6.834;2023-05-14T13:13:03;93345.06;;;21.97;40.28
48035;BME280;33812;46.480;6.834;2023-05-14T13:17:06;93335.06;;;22.00;39.48
48035;BME280;33812;46.480;6.834;2023-05-14T13:21:08;93327.88;;;22.02;39.24
48035;BME280;33812;46.480;6.834;2023-05-14T13:25:10;93329.41;;;22.03;39.66
48035;BME280;33812;46.480;6.834;2023-05-14T13:29:12;93330.94;;;22.04;39.42
48035;BME280;33812;46.480;6.834;2023-05-14T13:33:15;93325.75;;;22.06;39.07
48035;BME280;33812;46.480;6.834;2023-05-14T13:37:16;93318.19;;;22.07;39.54
48035;BME280;33812;46.480;6.834;2023-05-14T13:41:18;93318.19;;;22.07;38.26
48035;BME280;33812;46.480;6.834;2023-05-14T13:45:20;93309.44;;;22.08;38.23
48035;BME280;33812;46.480;6.834;2023-05-14T13:49:23;93316.53;;;22.09;38.54
48035;BME280;33812;46.480;6.834;2023-05-14T13:53:25;93309.00;;;22.10;38.23
48035;BME280;33812;46.480;6.834;2023-05-14T13:57:27;93302.22;;;22.11;38.55
48035;BME280;33812;46.480;6.834;2023-05-14T14:01:29;93298.22;;;22.12;38.94
48035;BME280;33812;46.480;6.834;2023-05-14T14:05:32;93299.47;;;22.11;38.32
48035;BME280;33812;46.480;6.834;2023-05-14T14:09:34;93298.22;;;22.12;38.57
48035;BME280;33812;46.480;6.834;2023-05-14T14:13:36;93304.22;;;22.10;38.46
48035;BME280;33812;46.480;6.834;2023-05-14T14:17:37;93294.25;;;22.13;38.23
48035;BME280;33812;46.480;6.834;2023-05-14T14:21:42;93292.69;;;22.12;38.45
48035;BME280;33812;46.480;6.834;2023-05-14T14:25:44;93293.00;;;22.14;38.07
48035;BME280;33812;46.480;6.834;2023-05-14T14:29:45;93288.72;;;22.13;38.31
48035;BME280;33812;46.480;6.834;2023-05-14T14:33:47;93295.59;;;22.08;38.24
48035;BME280;33812;46.480;6.834;2023-05-14T14:37:51;93298.69;;;22.10;38.62
48035;BME280;33812;46.480;6.834;2023-05-14T14:41:54;93295.91;;;22.10;38.37
48035;BME280;33812;46.480;6.834;2023-05-14T14:45:56;93295.44;;;22.12;38.39
48035;BME280;33812;46.480;6.834;2023-05-14T14:49:59;93289.47;;;22.14;38.46
48035;BME280;33812;46.480;6.834;2023-05-14T14:54:02;93294.56;;;22.15;38.51
48035;BME280;33812;46.480;6.834;2023-05-14T14:58:13;93292.88;;;22.18;39.05
48035;BME280;33812;46.480;6.834;2023-05-14T15:02:16;93291.63;;;22.19;38.88
48035;BME280;33812;46.480;6.834;2023-05-14T15:06:18;93294.09;;;22.17;39.51
48035;BME280;33812;46.480;6.834;2023-05-14T15:10:21;93286.25;;;22.15;39.05
48035;BME280;33812;46.480;6.834;2023-05-14T15:14:22;93286.41;;;22.12;39.13
48035;BME280;33812;46.480;6.834;2023-05-14T15:18:24;93286.41;;;22.12;39.77
48035;BME280;33812;46.480;6.834;2023-05-14T15:22:26;93297.75;;;22.14;38.97
48035;BME280;33812;46.480;6.834;2023-05-14T15:26:29;93292.69;;;22.12;39.24
48035;BME280;33812;46.480;6.834;2023-05-14T15:30:31;93305.31;;;22.13;39.26
48035;BME280;33812;46.480;6.834;2023-05-14T15:34:32;93298.34;;;22.08;38.68
48035;BME280;33812;46.480;6.834;2023-05-14T15:38:34;93299.91;;;22.09;38.09
48035;BME280;33812;46.480;6.834;2023-05-14T15:42:38;93301.63;;;22.16;38.80
48035;BME280;33812;46.480;6.834;2023-05-14T15:46:41;93314.53;;;22.19;38.75
48035;BME280;33812;46.480;6.834;2023-05-14T15:50:43;93321.13;;;22.13;38.51
48035;BME280;33812;46.480;6.834;2023-05-14T15:54:47;93321.47;;;22.15;38.52
48035;BME280;33812;46.480;6.834;2023-05-14T15:58:50;93324.38;;;22.11;40.11
48035;BME280;33812;46.480;6.834;2023-05-14T16:02:52;93308.09;;;22.13;40.22
48035;BME280;33812;46.480;6.834;2023-05-14T16:07:00;93297.59;;;22.08;40.80
48035;BME280;33812;46.480;6.834;2023-05-14T16:11:02;93302.88;;;22.15;40.58
48035;BME280;33812;46.480;6.834;2023-05-14T16:15:07;93295.16;;;22.10;41.21
48035;BME280;33812;46.480;6.834;2023-05-14T16:19:09;93286.88;;;22.19;41.18
48035;BME280;33812;46.480;6.834;2023-05-14T16:23:11;93291.47;;;22.22;41.08
48035;BME280;33812;46.480;6.834;2023-05-14T16:27:12;93292.91;;;22.27;40.80
48035;BME280;33812;46.480;6.834;2023-05-14T16:31:16;93293.50;;;22.22;40.28
48035;BME280;33812;46.480;6.834;2023-05-14T16:35:18;93293.50;;;22.22;40.60
48035;BME280;33812;46.480;6.834;2023-05-14T16:39:22;93307.50;;;22.28;41.13
48035;BME280;33812;46.480;6.834;2023-05-14T16:43:26;93306.75;;;22.27;40.99
48035;BME280;33812;46.480;6.834;2023-05-14T16:47:29;93303.66;;;22.25;40.76
48035;BME280;33812;46.480;6.834;2023-05-14T16:51:31;93309.00;;;22.19;41.44
48035;BME280;33812;46.480;6.834;2023-05-14T16:55:33;93324.84;;;22.19;41.32
48035;BME280;33812;46.480;6.834;2023-05-14T16:59:34;93317.91;;;22.14;41.42
48035;BME280;33812;46.480;6.834;2023-05-14T17:03:38;93329.91;;;22.11;41.53
48035;BME280;33812;46.480;6.834;2023-05-14T17:07:40;93320.38;;;22.12;41.14
48035;BME280;33812;46.480;6.834;2023-05-14T17:11:42;93324.22;;;22.15;41.21
48035;BME280;33812;46.480;6.834;2023-05-14T17:15:45;93321.88;;;22.04;41.11
48035;BME280;33812;46.480;6.834;2023-05-14T17:19:52;93321.88;;;22.04;40.99
48035;BME280;33812;46.480;6.834;2023-05-14T17:23:57;93331.81;;;21.92;41.46
48035;BME280;33812;46.480;6.834;2023-05-14T17:28:04;93348.31;;;22.05;41.06
48035;BME280;33812;46.480;6.834;2023-05-14T17:32:08;93348.91;;;22.00;41.32
48035;BME280;33812;46.480;6.834;2023-05-14T17:36:11;93349.94;;;21.93;41.43
48035;BME280;33812;46.480;6.834;2023-05-14T17:40:13;93364.38;;;21.88;41.63
48035;BME280;33812;46.480;6.834;2023-05-14T17:44:15;93371.00;;;21.90;41.67
48035;BME280;33812;46.480;6.834;2023-05-14T17:48:20;93354.66;;;21.83;41.55
48035;BME280;33812;46.480;6.834;2023-05-14T17:52:24;93358.44;;;21.98;41.30
48035;BME280;33812;46.480;6.834;2023-05-14T17:56:28;93359.03;;;21.93;41.00
48035;BME280;33812;46.480;6.834;2023-05-14T18:00:30;93356.59;;;21.95;40.87
48035;BME280;33812;46.480;6.834;2023-05-14T18:04:32;93351.50;;;21.94;40.98
48035;BME280;33812;46.480;6.834;2023-05-14T18:08:35;93357.50;;;21.92;40.81
48035;BME280;33812;46.480;6.834;2023-05-14T18:12:43;93356.53;;;21.86;40.89
48035;BME280;33812;46.480;6.834;2023-05-14T18:16:44;93375.94;;;21.95;40.43
48035;BME280;33812;46.480;6.834;2023-05-14T18:20:47;93367.91;;;21.88;40.49
48035;BME280;33812;46.480;6.834;2023-05-14T18:24:54;93386.94;;;21.86;40.79
48035;BME280;33812;46.480;6.834;2023-05-14T18:28:58;93372.19;;;21.80;40.54
48035;BME280;33812;46.480;6.834;2023-05-14T18:33:00;93376.53;;;21.68;40.94
48035;BME280;33812;46.480;6.834;2023-05-14T18:37:07;93374.25;;;21.76;40.82
48035;BME280;33812;46.480;6.834;2023-05-14T18:41:11;93385.00;;;21.73;40.55
48035;BME280;33812;46.480;6.834;2023-05-14T18:45:12;93381.56;;;21.82;41.02
48035;BME280;33812;46.480;6.834;2023-05-14T18:49:14;93380.25;;;21.74;40.75
48035;BME280;33812;46.480;6.834;2023-05-14T18:53:16;93389.31;;;21.74;40.39
48035;BME280;33812;46.480;6.834;2023-05-14T18:57:24;93402.50;;;21.70;40.54
48035;BME280;33812;46.480;6.834;2023-05-14T19:01:28;93400.00;;;21.63;40.04
48035;BME280;33812;46.480;6.834;2023-05-14T19:05:30;93403.41;;;21.22;42.02
48035;BME280;33812;46.480;6.834;2023-05-14T19:09:32;93407.31;;;21.34;42.71
48035;BME280;33812;46.480;6.834;2023-05-14T19:13:35;93404.03;;;21.26;42.78
48035;BME280;33812;46.480;6.834;2023-05-14T19:17:37;93406.63;;;21.08;43.25
48035;BME280;33812;46.480;6.834;2023-05-14T19:21:39;93405.41;;;21.09;43.37
48035;BME280;33812;46.480;6.834;2023-05-14T19:25:40;93410.69;;;21.16;43.83
48035;BME280;33812;46.480;6.834;2023-05-14T19:29:44;93409.63;;;21.00;43.92
48035;BME280;33812;46.480;6.834;2023-05-14T19:33:47;93413.09;;;21.27;43.46
48035;BME280;33812;46.480;6.834;2023-05-14T19:37:49;93423.38;;;21.26;43.90
48035;BME280;33812;46.480;6.834;2023-05-14T19:41:51;93428.06;;;21.17;43.70
48035;BME280;33812;46.480;6.834;2023-05-14T19:45:54;93434.50;;;21.00;44.13
48035;BME280;33812;46.480;6.834;2023-05-14T19:49:56;93434.47;;;21.13;44.29
48035;BME280;33812;46.480;6.834;2023-05-14T19:53:58;93449.63;;;21.09;44.51
48035;BME280;33812;46.480;6.834;2023-05-14T19:58:01;93452.94;;;21.17;44.54
48035;BME280;33812;46.480;6.834;2023-05-14T20:02:04;93448.13;;;21.30;44.67
48035;BME280;33812;46.480;6.834;2023-05-14T20:06:07;93442.25;;;21.41;44.38
48035;BME280;33812;46.480;6.834;2023-05-14T20:10:09;93458.97;;;21.24;44.54
48035;BME280;33812;46.480;6.834;2023-05-14T20:14:11;93459.22;;;21.17;44.70
48035;BME280;33812;46.480;6.834;2023-05-14T20:18:14;93449.50;;;21.12;44.32
48035;BME280;33812;46.480;6.834;2023-05-14T20:22:16;93456.59;;;21.13;44.41
48035;BME280;33812;46.480;6.834;2023-05-14T20:26:19;93452.59;;;21.14;44.41
48035;BME280;33812;46.480;6.834;2023-05-14T20:30:20;93451.06;;;21.00;44.11
48035;BME280;33812;46.480;6.834;2023-05-14T20:34:26;93445.41;;;21.17;44.47
48035;BME280;33812;46.480;6.834;2023-05-14T20:38:27;93443.72;;;21.20;44.24
48035;BME280;33812;46.480;6.834;2023-05-14T20:42:30;93445.81;;;21.29;44.25
48035;BME280;33812;46.480;6.834;2023-05-14T20:46:32;93451.91;;;21.23;44.24
48035;BME280;33812;46.480;6.834;2023-05-14T20:50:35;93447.97;;;20.98;44.48
48035;BME280;33812;46.480;6.834;2023-05-14T20:54:37;93449.94;;;21.11;44.19
48035;BME280;33812;46.480;6.834;2023-05-14T20:58:39;93448.03;;;21.21;44.09
48035;BME280;33812;46.480;6.834;2023-05-14T21:02:40;93441.94;;;21.26;44.30
48035;BME280;33812;46.480;6.834;2023-05-14T21:06:44;93442.72;;;21.26;44.18
48035;BME280;33812;46.480;6.834;2023-05-14T21:10:46;93448.38;;;21.23;43.89
48035;BME280;33812;46.480;6.834;2023-05-14T21:14:48;93448.31;;;21.00;44.83
48035;BME280;33812;46.480;6.834;2023-05-14T21:18:49;93448.38;;;21.23;43.99
48035;BME280;33812;46.480;6.834;2023-05-14T21:22:52;93444.44;;;21.46;43.50
48035;BME280;33812;46.480;6.834;2023-05-14T21:26:54;93449.59;;;21.57;43.25
48035;BME280;33812;46.480;6.834;2023-05-14T21:30:56;93445.47;;;21.40;42.68